This is the latest recevied weather packets stored in our database for station/object W8AN. If no packets are shown the sender has not sent any weather packets the latest 10 day(s).
| Time | Temp. | Humidity | Pressure | Rain* | Wind** | Luminosity | Snow |
|---|---|---|---|---|---|---|---|
| 1777909866 | 19.44° C | 53% | 4260.7 hPa | 0 mm | - | 776 W/m² | - |
| 1777909563 | 19.44° C | 53% | 4260.8 hPa | 0 mm | - | 798 W/m² | - |
| 1777909260 | 19.44° C | 54% | 4260.6 hPa | 0 mm | - | 798 W/m² | - |
| 1777908958 | 19.44° C | 55% | 4260.9 hPa | 0 mm | - | 800 W/m² | - |
| 1777908656 | 18.89° C | 54% | 4260.7 hPa | 0 mm | - | 803 W/m² | - |
| 1777908352 | 18.89° C | 56% | 4260.9 hPa | 0 mm | - | 806 W/m² | - |
| 1777908049 | 18.89° C | 56% | 4260.9 hPa | 0 mm | - | 831 W/m² | - |
| 1777907744 | 18.33° C | 56% | 4260.7 hPa | 0 mm | - | 826 W/m² | - |
| 1777907439 | 18.33° C | 55% | 4260.9 hPa | 0 mm | - | 814 W/m² | - |
| 1777907137 | 18.33° C | 56% | 4260.9 hPa | 0 mm | - | 812 W/m² | - |
| 1777906834 | 17.78° C | 56% | 4260.8 hPa | 0 mm | - | 771 W/m² | - |
| 1777906532 | 17.78° C | 57% | 4260.8 hPa | 0 mm | - | 773 W/m² | - |
| 1777906227 | 17.78° C | 58% | 4261 hPa | 0 mm | - | 766 W/m² | - |
| 1777905923 | 17.22° C | 57% | 4260.9 hPa | 0 mm | - | 739 W/m² | - |
| 1777905620 | 17.22° C | 59% | 4260.9 hPa | 0 mm | - | 737 W/m² | - |
| 1777905317 | 16.67° C | 58% | 4260.8 hPa | 0 mm | - | 709 W/m² | - |
| 1777905015 | 17.22° C | 60% | 4261.1 hPa | 0 mm | - | 711 W/m² | - |
| 1777904712 | 16.67° C | 59% | 4261 hPa | 0 mm | - | 703 W/m² | - |
| 1777904409 | 16.67° C | 59% | 4260.8 hPa | 0 mm | - | 657 W/m² | - |
| 1777904106 | 16.67° C | 59% | 4260.9 hPa | 0 mm | - | 642 W/m² | - |
| 1777903803 | 16.67° C | 60% | 4260.9 hPa | 0 mm | - | 575 W/m² | - |
| 1777903499 | 16.67° C | 59% | 4261.4 hPa | 0 mm | - | 664 W/m² | - |
| 1777903195 | 16.11° C | 59% | 4261.4 hPa | 0 mm | - | 649 W/m² | - |
| 1777902892 | 16.11° C | 60% | 4261.3 hPa | 0 mm | - | 632 W/m² | - |
| 1777902589 | 15.56° C | 62% | 4261.5 hPa | 0 mm | - | 606 W/m² | - |
* Rain latest hour (hover to see other rain measurements)
** Current wind speed in m/s (hover to see current wind gust speed)